Time;durP1;ratioP1;P1;durP2;ratioP2;P2;SDS_P1;SDS_P2;PMS_P1;PMS_P2;Temp;Humidity;BMP_temperature;BMP_pressure;BME280_temperature;BME280_humidity;BME280_pressure;Samples;Min_cycle;Max_cycle;Signal;HPM_P1;HPM_P2
2022/03/09 00:01:39;;;;;;;1.07;1.07;;;;;;;;;;5013640;28;20419;-59
2022/03/09 00:04:05;;;;;;;1.00;1.00;;;;;;;;;;5013915;28;20459;-61
2022/03/09 00:06:31;;;;;;;0.93;0.93;;;;;;;;;;5013777;28;20412;-61
2022/03/09 00:08:57;;;;;;;0.80;0.80;;;;;;;;;;5013925;28;20645;-60
2022/03/09 00:11:23;;;;;;;0.82;0.82;;;;;;;;;;5013588;28;20622;-60
2022/03/09 00:13:49;;;;;;;1.00;1.00;;;;;;;;;;5013617;28;20224;-55
2022/03/09 00:16:15;;;;;;;1.00;1.00;;;;;;;;;;5013764;28;20420;-60
2022/03/09 00:18:41;;;;;;;1.35;1.35;;;;;;;;;;4995985;28;20431;-59
2022/03/09 00:21:07;;;;;;;1.03;1.03;;;;;;;;;;5013390;28;20177;-60
2022/03/09 00:23:33;;;;;;;0.90;0.90;;;;;;;;;;5013496;28;20424;-61
2022/03/09 00:25:59;;;;;;;1.00;1.00;;;;;;;;;;5013579;28;20404;-57
2022/03/09 00:28:24;;;;;;;1.10;1.10;;;;;;;;;;5012433;28;20456;-60
2022/03/09 00:30:50;;;;;;;1.00;1.00;;;;;;;;;;5013386;28;20775;-60
2022/03/09 00:33:16;;;;;;;0.90;0.90;;;;;;;;;;5013362;28;20512;-58
2022/03/09 00:35:44;;;;;;;1.03;1.03;;;;;;;;;;5013317;28;20412;-59
2022/03/09 00:38:10;;;;;;;0.95;0.95;;;;;;;;;;5013403;28;20412;-58
2022/03/09 00:40:35;;;;;;;0.82;0.82;;;;;;;;;;5014727;28;20263;-60
2022/03/09 00:43:01;;;;;;;0.90;0.90;;;;;;;;;;5014056;28;20193;-60
2022/03/09 00:45:27;;;;;;;1.20;1.20;;;;;;;;;;5013933;28;20909;-55
2022/03/09 00:47:53;;;;;;;0.90;0.90;;;;;;;;;;5013469;28;20468;-59
2022/03/09 00:50:19;;;;;;;1.33;1.33;;;;;;;;;;5013094;28;20413;-60
2022/03/09 00:52:47;;;;;;;0.80;0.80;;;;;;;;;;5012614;28;20425;-59
2022/03/09 00:55:13;;;;;;;0.90;0.90;;;;;;;;;;5012936;28;20400;-57
2022/03/09 00:57:39;;;;;;;0.80;0.80;;;;;;;;;;5013022;28;20181;-57
2022/03/09 01:00:05;;;;;;;0.85;0.85;;;;;;;;;;5012820;28;20192;-56
2022/03/09 01:02:31;;;;;;;0.80;0.80;;;;;;;;;;5012608;28;20218;-56
2022/03/09 01:04:57;;;;;;;0.70;0.70;;;;;;;;;;5013125;28;20188;-58
2022/03/09 01:07:23;;;;;;;0.90;0.90;;;;;;;;;;5016111;28;20966;-60
2022/03/09 01:09:49;;;;;;;0.95;0.95;;;;;;;;;;5012683;28;20190;-59
2022/03/09 01:12:15;;;;;;;0.90;0.90;;;;;;;;;;5012464;28;20193;-58
2022/03/09 01:14:41;;;;;;;0.80;0.80;;;;;;;;;;5012702;28;20452;-59
2022/03/09 01:17:07;;;;;;;0.90;0.90;;;;;;;;;;5012694;28;20427;-59
2022/03/09 01:19:34;;;;;;;1.00;1.00;;;;;;;;;;5012506;28;20420;-56
2022/03/09 01:22:00;;;;;;;0.82;0.82;;;;;;;;;;5012488;28;20436;-60
2022/03/09 01:24:26;;;;;;;1.17;1.17;;;;;;;;;;5012639;28;20173;-59
2022/03/09 01:26:51;;;;;;;1.10;1.10;;;;;;;;;;5012616;28;20448;-59
2022/03/09 01:29:17;;;;;;;1.23;1.23;;;;;;;;;;5012696;28;20539;-60
2022/03/09 01:31:43;;;;;;;1.20;1.20;;;;;;;;;;5012299;28;20405;-59
2022/03/09 01:34:09;;;;;;;1.00;1.00;;;;;;;;;;5012339;28;20408;-61
2022/03/09 01:36:37;;;;;;;1.00;1.00;;;;;;;;;;5012373;28;20423;-60
2022/03/09 01:39:03;;;;;;;1.17;1.17;;;;;;;;;;5012228;28;20412;-61
2022/03/09 01:41:29;;;;;;;1.20;1.20;;;;;;;;;;5011915;28;20196;-58
2022/03/09 01:44:24;;;;;;;0.80;0.80;;;;;;;;;;5012109;28;20190;-60
2022/03/09 01:46:51;;;;;;;0.80;0.80;;;;;;;;;;4995513;28;20554;-61
2022/03/09 01:49:17;;;;;;;0.90;0.90;;;;;;;;;;5012102;28;20181;-61
2022/03/09 01:51:44;;;;;;;0.80;0.80;;;;;;;;;;5011781;28;20219;-59
2022/03/09 01:54:11;;;;;;;0.80;0.80;;;;;;;;;;5012079;28;20591;-60
2022/03/09 01:56:37;;;;;;;0.90;0.90;;;;;;;;;;5011917;28;20545;-60
2022/03/09 01:59:04;;;;;;;0.65;0.65;;;;;;;;;;5011983;28;20178;-60
2022/03/09 02:01:30;;;;;;;0.82;0.82;;;;;;;;;;5011690;28;20177;-60
2022/03/09 02:03:59;;;;;;;0.93;0.93;;;;;;;;;;5011765;28;20693;-60
2022/03/09 02:06:25;;;;;;;0.68;0.68;;;;;;;;;;5011803;28;20350;-61
2022/03/09 02:11:37;;;;;;;0.80;0.80;;;;;;;;;;5011786;28;20189;-58
2022/03/09 02:14:03;;;;;;;0.85;0.85;;;;;;;;;;5011746;28;20173;-61
2022/03/09 02:16:29;;;;;;;0.80;0.80;;;;;;;;;;5011896;28;20549;-60
2022/03/09 02:18:55;;;;;;;0.75;0.75;;;;;;;;;;5011804;28;20178;-58
2022/03/09 02:21:23;;;;;;;0.80;0.80;;;;;;;;;;5011436;28;20169;-60
2022/03/09 02:23:49;;;;;;;0.90;0.90;;;;;;;;;;5011596;28;20761;-61
2022/03/09 02:26:15;;;;;;;0.93;0.93;;;;;;;;;;5011561;28;20205;-61
2022/03/09 02:28:46;;;;;;;0.87;0.87;;;;;;;;;;5011569;28;20228;-61
2022/03/09 02:31:13;;;;;;;0.80;0.80;;;;;;;;;;5011367;28;20880;-58
2022/03/09 02:33:39;;;;;;;0.90;0.90;;;;;;;;;;5011417;28;20224;-59
2022/03/09 02:36:05;;;;;;;0.80;0.80;;;;;;;;;;5011467;28;20173;-60
2022/03/09 02:38:31;;;;;;;0.70;0.70;;;;;;;;;;5011620;28;20268;-60
2022/03/09 02:40:57;;;;;;;0.70;0.70;;;;;;;;;;5011283;28;20185;-59
2022/03/09 02:43:23;;;;;;;0.90;0.90;;;;;;;;;;5011517;28;20197;-61
2022/03/09 02:45:49;;;;;;;0.80;0.80;;;;;;;;;;5011423;28;20418;-59
2022/03/09 02:48:15;;;;;;;0.75;0.75;;;;;;;;;;5011302;28;20205;-58
2022/03/09 02:50:41;;;;;;;0.70;0.70;;;;;;;;;;5011281;28;20235;-60
2022/03/09 02:53:07;;;;;;;0.82;0.82;;;;;;;;;;5014016;28;20186;-59
2022/03/09 02:55:33;;;;;;;1.05;1.05;;;;;;;;;;5014854;28;20173;-60
2022/03/09 02:57:59;;;;;;;0.70;0.70;;;;;;;;;;5015233;28;20189;-60
2022/03/09 03:00:25;;;;;;;1.33;1.33;;;;;;;;;;5014914;28;21171;-60
2022/03/09 03:02:51;;;;;;;1.10;1.10;;;;;;;;;;5014972;28;20209;-60
2022/03/09 03:05:17;;;;;;;1.10;1.10;;;;;;;;;;5015148;28;20466;-59
2022/03/09 03:07:43;;;;;;;1.20;1.20;;;;;;;;;;5015020;28;20462;-59
2022/03/09 03:10:09;;;;;;;1.27;1.27;;;;;;;;;;4997285;28;20420;-59
2022/03/09 03:12:35;;;;;;;1.10;1.10;;;;;;;;;;5014885;28;20430;-61
2022/03/09 03:15:02;;;;;;;1.20;1.20;;;;;;;;;;5014898;28;20170;-59
2022/03/09 03:17:28;;;;;;;1.00;1.00;;;;;;;;;;5014893;28;20404;-58
2022/03/09 03:19:54;;;;;;;1.60;1.60;;;;;;;;;;5014633;28;20182;-57
2022/03/09 03:22:20;;;;;;;0.90;0.90;;;;;;;;;;5014566;28;20506;-57
2022/03/09 03:24:46;;;;;;;1.00;1.00;;;;;;;;;;5014661;28;20508;-57
2022/03/09 03:27:12;;;;;;;1.17;1.17;;;;;;;;;;5014676;28;20460;-60
2022/03/09 03:29:38;;;;;;;1.10;1.10;;;;;;;;;;5014652;28;20409;-61
2022/03/09 03:32:04;;;;;;;1.40;1.40;;;;;;;;;;5014470;28;20505;-61
2022/03/09 03:34:30;;;;;;;1.20;1.20;;;;;;;;;;5014678;28;20177;-59
2022/03/09 03:36:56;;;;;;;1.20;1.20;;;;;;;;;;5014551;28;20182;-61
2022/03/09 03:39:22;;;;;;;1.20;1.20;;;;;;;;;;5014419;28;20411;-60
2022/03/09 03:41:48;;;;;;;1.30;1.30;;;;;;;;;;5014117;28;20185;-59
2022/03/09 03:44:14;;;;;;;0.97;0.97;;;;;;;;;;5014379;28;20742;-61
2022/03/09 03:46:41;;;;;;;1.20;1.20;;;;;;;;;;5014281;28;20910;-60
2022/03/09 03:49:07;;;;;;;1.15;1.15;;;;;;;;;;5014365;28;20711;-60
2022/03/09 03:51:33;;;;;;;1.10;1.10;;;;;;;;;;5014047;28;20173;-58
2022/03/09 03:53:59;;;;;;;1.30;1.30;;;;;;;;;;5014022;28;20201;-58
2022/03/09 03:56:25;;;;;;;1.30;1.30;;;;;;;;;;5014205;28;20413;-60
2022/03/09 03:58:52;;;;;;;1.10;1.10;;;;;;;;;;5014240;28;20440;-60
2022/03/09 04:01:18;;;;;;;1.00;1.00;;;;;;;;;;5013935;28;20253;-60
2022/03/09 04:03:44;;;;;;;1.17;1.17;;;;;;;;;;5014915;28;20448;-59
2022/03/09 04:06:09;;;;;;;1.10;1.10;;;;;;;;;;5013879;28;20492;-59
2022/03/09 04:08:35;;;;;;;1.10;1.10;;;;;;;;;;5015917;28;20474;-60
2022/03/09 04:11:01;;;;;;;1.13;1.13;;;;;;;;;;5014060;28;20412;-61
2022/03/09 04:13:27;;;;;;;1.30;1.30;;;;;;;;;;5014169;28;20433;-61
2022/03/09 04:15:53;;;;;;;1.20;1.20;;;;;;;;;;5014099;28;20169;-55
2022/03/09 04:18:19;;;;;;;1.00;1.00;;;;;;;;;;5016386;28;20459;-56
2022/03/09 04:20:45;;;;;;;0.90;0.90;;;;;;;;;;5013436;28;20944;-57
2022/03/09 04:23:12;;;;;;;1.17;1.17;;;;;;;;;;5013614;28;20421;-56
2022/03/09 04:25:38;;;;;;;1.10;1.10;;;;;;;;;;5013852;28;20174;-58
2022/03/09 04:28:05;;;;;;;1.00;1.00;;;;;;;;;;5013581;28;20209;-58
2022/03/09 04:30:32;;;;;;;1.27;1.27;;;;;;;;;;5013368;28;20804;-60
2022/03/09 04:32:58;;;;;;;1.40;1.40;;;;;;;;;;5013443;28;20190;-61
2022/03/09 04:35:24;;;;;;;1.30;1.30;;;;;;;;;;5013459;28;20178;-59
2022/03/09 04:37:50;;;;;;;1.05;1.05;;;;;;;;;;5013324;28;20183;-58
2022/03/09 04:40:19;;;;;;;1.83;1.83;;;;;;;;;;5013022;28;20556;-59
2022/03/09 04:42:45;;;;;;;1.27;1.27;;;;;;;;;;5013306;28;20243;-61
2022/03/09 04:45:11;;;;;;;1.55;1.55;;;;;;;;;;5013234;28;20177;-58
2022/03/09 04:47:37;;;;;;;1.40;1.40;;;;;;;;;;5013212;28;20685;-57
2022/03/09 04:50:03;;;;;;;1.80;1.80;;;;;;;;;;5013113;28;20683;-60
2022/03/09 04:52:29;;;;;;;1.67;1.67;;;;;;;;;;4995497;28;20200;-60
2022/03/09 04:54:55;;;;;;;2.20;2.10;;;;;;;;;;5013097;28;20715;-60
2022/03/09 04:57:21;;;;;;;1.77;1.77;;;;;;;;;;5012982;28;20459;-57
2022/03/09 04:59:47;;;;;;;1.98;1.98;;;;;;;;;;5013066;28;20409;-59
2022/03/09 05:02:13;;;;;;;1.50;1.50;;;;;;;;;;5012570;28;20242;-58
2022/03/09 05:04:39;;;;;;;1.43;1.43;;;;;;;;;;5012965;28;20440;-58
2022/03/09 05:07:05;;;;;;;1.17;1.17;;;;;;;;;;5012678;28;20812;-57
2022/03/09 05:09:31;;;;;;;1.20;1.20;;;;;;;;;;5012739;28;20407;-57
2022/03/09 05:11:57;;;;;;;0.90;0.90;;;;;;;;;;5012617;28;20428;-60
2022/03/09 05:14:23;;;;;;;1.45;1.45;;;;;;;;;;5012373;28;20466;-61
2022/03/09 05:16:49;;;;;;;1.10;1.10;;;;;;;;;;5012643;28;20552;-60
2022/03/09 05:19:15;;;;;;;1.35;1.35;;;;;;;;;;5012569;28;20405;-61
2022/03/09 05:21:41;;;;;;;1.30;1.30;;;;;;;;;;5012188;28;20177;-60
2022/03/09 05:24:07;;;;;;;1.75;1.75;;;;;;;;;;5012660;28;20417;-59
2022/03/09 05:26:32;;;;;;;1.63;1.63;;;;;;;;;;5012400;28;20258;-60
2022/03/09 05:28:59;;;;;;;2.57;2.47;;;;;;;;;;5012485;28;20412;-59
2022/03/09 05:31:25;;;;;;;1.70;1.70;;;;;;;;;;5012272;28;20455;-60
2022/03/09 05:33:51;;;;;;;1.80;1.80;;;;;;;;;;5012797;28;20222;-61
2022/03/09 05:36:17;;;;;;;1.83;1.83;;;;;;;;;;5012386;28;20184;-60
2022/03/09 05:38:43;;;;;;;1.80;1.80;;;;;;;;;;5012333;28;20182;-59
2022/03/09 05:41:09;;;;;;;1.90;1.90;;;;;;;;;;5003439;28;20463;-59
2022/03/09 05:43:35;;;;;;;1.57;1.57;;;;;;;;;;4992311;28;20433;-61
2022/03/09 05:46:01;;;;;;;1.88;1.88;;;;;;;;;;4992588;28;20986;-60
2022/03/09 05:48:27;;;;;;;1.85;1.85;;;;;;;;;;4992439;28;20206;-60
2022/03/09 05:50:53;;;;;;;2.13;2.07;;;;;;;;;;4992470;28;20182;-59
2022/03/09 05:53:19;;;;;;;2.00;2.00;;;;;;;;;;4992546;28;20430;-59
2022/03/09 05:55:45;;;;;;;2.20;2.20;;;;;;;;;;4992668;28;20500;-61
2022/03/09 05:58:11;;;;;;;2.77;2.67;;;;;;;;;;4992410;28;20409;-61
2022/03/09 06:00:37;;;;;;;2.37;2.37;;;;;;;;;;5007131;28;20429;-60
2022/03/09 06:03:02;;;;;;;2.20;2.17;;;;;;;;;;4992074;28;20552;-61
2022/03/09 06:05:29;;;;;;;2.03;2.03;;;;;;;;;;4992167;28;20479;-61
2022/03/09 06:07:55;;;;;;;1.63;1.63;;;;;;;;;;4992183;28;20458;-61
2022/03/09 06:10:20;;;;;;;3.07;2.97;;;;;;;;;;4991952;28;20174;-61
2022/03/09 06:12:46;;;;;;;2.10;2.10;;;;;;;;;;4992231;28;20852;-59
2022/03/09 06:15:12;;;;;;;1.80;1.80;;;;;;;;;;4991818;28;20410;-59
2022/03/09 06:17:48;;;;;;;2.10;2.10;;;;;;;;;;4992098;28;20825;-57
2022/03/09 06:20:18;;;;;;;4.35;4.15;;;;;;;;;;4992384;28;20397;-60
2022/03/09 06:22:44;;;;;;;2.08;2.00;;;;;;;;;;4992122;28;20265;-60
2022/03/09 06:25:10;;;;;;;1.83;1.83;;;;;;;;;;4992139;28;20174;-60
2022/03/09 06:27:46;;;;;;;2.05;2.05;;;;;;;;;;4991153;28;20205;-60
2022/03/09 06:30:13;;;;;;;3.15;2.97;;;;;;;;;;4991866;28;20167;-60
2022/03/09 06:32:39;;;;;;;1.88;1.88;;;;;;;;;;4992016;28;20240;-61
2022/03/09 06:35:06;;;;;;;2.00;2.00;;;;;;;;;;4992235;28;20705;-61
2022/03/09 06:37:32;;;;;;;1.77;1.77;;;;;;;;;;4991944;28;20561;-60
2022/03/09 06:39:59;;;;;;;2.13;2.13;;;;;;;;;;4991949;28;20626;-61
2022/03/09 06:42:25;;;;;;;1.75;1.75;;;;;;;;;;4991586;28;20190;-61
2022/03/09 06:44:51;;;;;;;2.28;2.17;;;;;;;;;;4991912;28;20519;-60
2022/03/09 06:47:17;;;;;;;1.90;1.90;;;;;;;;;;4992025;28;20719;-60
2022/03/09 06:49:43;;;;;;;2.67;2.57;;;;;;;;;;4992001;28;20171;-60
2022/03/09 06:52:09;;;;;;;2.90;2.80;;;;;;;;;;4991841;28;20545;-60
2022/03/09 06:54:35;;;;;;;1.65;1.65;;;;;;;;;;4991776;28;20413;-58
2022/03/09 06:57:01;;;;;;;2.00;2.00;;;;;;;;;;4991936;28;20637;-59
2022/03/09 06:59:27;;;;;;;2.07;2.03;;;;;;;;;;4991864;28;20197;-61
2022/03/09 07:01:53;;;;;;;2.05;2.00;;;;;;;;;;4991586;28;20901;-59
2022/03/09 07:04:19;;;;;;;1.73;1.73;;;;;;;;;;4992143;28;20224;-61
2022/03/09 07:06:45;;;;;;;2.15;2.13;;;;;;;;;;4991790;28;20946;-60
2022/03/09 07:09:11;;;;;;;1.60;1.60;;;;;;;;;;4992345;28;20295;-59
2022/03/09 07:11:37;;;;;;;1.77;1.77;;;;;;;;;;4991441;28;20657;-60
2022/03/09 07:14:04;;;;;;;1.60;1.60;;;;;;;;;;4991898;28;20440;-60
2022/03/09 07:16:30;;;;;;;1.58;1.58;;;;;;;;;;4991813;28;20541;-60
2022/03/09 07:18:56;;;;;;;1.33;1.33;;;;;;;;;;4992101;28;20170;-59
2022/03/09 07:21:22;;;;;;;2.00;2.00;;;;;;;;;;4991601;28;20401;-59
2022/03/09 07:23:48;;;;;;;1.92;1.92;;;;;;;;;;4991642;28;20198;-61
2022/03/09 07:26:14;;;;;;;1.30;1.30;;;;;;;;;;4991695;28;20182;-57
2022/03/09 07:28:40;;;;;;;1.60;1.60;;;;;;;;;;4996690;28;20273;-55
2022/03/09 07:31:06;;;;;;;1.65;1.65;;;;;;;;;;4992214;28;20197;-58
2022/03/09 07:33:32;;;;;;;1.75;1.75;;;;;;;;;;5006408;28;20685;-60
2022/03/09 07:36:00;;;;;;;1.60;1.60;;;;;;;;;;5010626;28;20677;-59
2022/03/09 07:38:26;;;;;;;1.30;1.30;;;;;;;;;;5013359;28;20240;-58
2022/03/09 07:40:52;;;;;;;1.73;1.73;;;;;;;;;;5014541;28;20186;-57
2022/03/09 07:43:18;;;;;;;1.50;1.50;;;;;;;;;;5014636;28;20546;-60
2022/03/09 07:45:44;;;;;;;1.50;1.50;;;;;;;;;;5014103;28;20236;-60
2022/03/09 07:48:10;;;;;;;1.40;1.40;;;;;;;;;;5014110;28;20464;-58
2022/03/09 07:50:36;;;;;;;1.67;1.67;;;;;;;;;;5014077;28;20186;-60
2022/03/09 07:53:02;;;;;;;1.27;1.27;;;;;;;;;;5014215;28;20602;-58
2022/03/09 07:55:28;;;;;;;1.43;1.43;;;;;;;;;;5014355;28;20254;-60
2022/03/09 07:57:54;;;;;;;1.73;1.73;;;;;;;;;;5014007;28;20474;-59
2022/03/09 08:00:20;;;;;;;1.53;1.53;;;;;;;;;;5013879;28;20417;-59
2022/03/09 08:02:47;;;;;;;1.60;1.60;;;;;;;;;;5014055;28;20491;-58
2022/03/09 08:05:13;;;;;;;1.15;1.15;;;;;;;;;;5014197;28;20181;-59
2022/03/09 08:07:39;;;;;;;2.50;2.40;;;;;;;;;;4996826;28;20252;-58
2022/03/09 08:10:05;;;;;;;1.80;1.80;;;;;;;;;;4994553;28;20634;-59
2022/03/09 08:12:31;;;;;;;1.30;1.30;;;;;;;;;;4993046;28;20202;-60
2022/03/09 08:14:57;;;;;;;1.40;1.40;;;;;;;;;;4994199;28;20170;-59
2022/03/09 08:17:23;;;;;;;1.70;1.70;;;;;;;;;;4994147;28;20181;-58
2022/03/09 08:19:49;;;;;;;1.20;1.20;;;;;;;;;;4993650;28;20453;-58
2022/03/09 08:22:15;;;;;;;1.37;1.37;;;;;;;;;;4993800;28;20442;-57
2022/03/09 08:24:41;;;;;;;1.33;1.33;;;;;;;;;;4993763;28;20500;-60
2022/03/09 08:27:07;;;;;;;1.13;1.13;;;;;;;;;;4993931;28;20289;-60
2022/03/09 08:29:33;;;;;;;1.23;1.23;;;;;;;;;;4993830;28;20445;-59
2022/03/09 08:31:59;;;;;;;1.10;1.10;;;;;;;;;;4993668;28;20195;-58
2022/03/09 08:34:25;;;;;;;0.90;0.90;;;;;;;;;;4993857;28;20407;-60
2022/03/09 08:36:50;;;;;;;1.03;1.03;;;;;;;;;;4993464;28;20422;-60
2022/03/09 08:39:16;;;;;;;1.40;1.40;;;;;;;;;;4994008;28;20477;-60
2022/03/09 08:41:44;;;;;;;1.80;1.70;;;;;;;;;;4993065;28;20405;-57
2022/03/09 08:44:10;;;;;;;1.25;1.25;;;;;;;;;;4993634;28;20448;-60
2022/03/09 08:46:36;;;;;;;1.63;1.63;;;;;;;;;;4993536;28;20180;-60
2022/03/09 08:49:02;;;;;;;1.58;1.58;;;;;;;;;;4993114;28;20260;-61
2022/03/09 08:51:28;;;;;;;1.88;1.88;;;;;;;;;;4992343;28;20181;-59
2022/03/09 08:53:54;;;;;;;1.93;1.93;;;;;;;;;;4993227;28;20194;-60
2022/03/09 08:56:21;;;;;;;1.15;1.15;;;;;;;;;;4993674;28;20852;-60
2022/03/09 08:58:47;;;;;;;1.15;1.15;;;;;;;;;;4993634;28;20166;-59
2022/03/09 09:01:13;;;;;;;1.23;1.23;;;;;;;;;;4992409;28;20192;-60
2022/03/09 09:03:39;;;;;;;1.35;1.35;;;;;;;;;;4992724;28;20213;-60
2022/03/09 09:06:05;;;;;;;1.80;1.80;;;;;;;;;;4993184;28;20486;-59
2022/03/09 09:08:31;;;;;;;1.70;1.70;;;;;;;;;;4993071;28;20497;-61
2022/03/09 09:10:57;;;;;;;1.60;1.60;;;;;;;;;;4992694;28;20179;-61
2022/03/09 09:13:23;;;;;;;1.70;1.70;;;;;;;;;;4992798;28;20197;-61
2022/03/09 09:15:49;;;;;;;1.50;1.50;;;;;;;;;;4992826;28;20402;-61
2022/03/09 09:18:16;;;;;;;1.60;1.60;;;;;;;;;;4992999;28;20418;-61
2022/03/09 09:20:42;;;;;;;1.53;1.53;;;;;;;;;;4992153;28;20420;-61
2022/03/09 09:23:08;;;;;;;1.53;1.53;;;;;;;;;;4992639;28;20433;-61
2022/03/09 09:25:33;;;;;;;1.50;1.50;;;;;;;;;;4992001;28;20396;-61
2022/03/09 09:28:00;;;;;;;1.20;1.20;;;;;;;;;;4992787;28;20469;-61
2022/03/09 09:30:32;;;;;;;1.43;1.43;;;;;;;;;;4992629;28;20785;-62
2022/03/09 09:32:59;;;;;;;2.03;2.00;;;;;;;;;;4992094;28;20455;-60
2022/03/09 09:35:25;;;;;;;1.57;1.57;;;;;;;;;;4992519;28;20417;-63
2022/03/09 09:37:51;;;;;;;1.57;1.57;;;;;;;;;;4992242;28;20417;-61
2022/03/09 09:40:17;;;;;;;2.43;2.40;;;;;;;;;;4992752;28;20421;-61
2022/03/09 09:42:44;;;;;;;1.10;1.10;;;;;;;;;;4992690;28;20480;-62
2022/03/09 09:45:10;;;;;;;1.27;1.27;;;;;;;;;;4992609;28;20417;-62
2022/03/09 09:47:36;;;;;;;1.70;1.70;;;;;;;;;;4992019;28;20453;-61
2022/03/09 09:50:05;;;;;;;1.47;1.47;;;;;;;;;;4992532;28;20778;-58
2022/03/09 09:52:36;;;;;;;1.60;1.60;;;;;;;;;;4992431;28;20778;-62
2022/03/09 09:55:03;;;;;;;1.30;1.30;;;;;;;;;;4992223;28;20806;-62
2022/03/09 09:57:30;;;;;;;0.70;0.70;;;;;;;;;;4992211;28;20458;-62
2022/03/09 09:59:56;;;;;;;0.53;0.53;;;;;;;;;;4991792;28;20423;-60
2022/03/09 10:02:22;;;;;;;0.60;0.60;;;;;;;;;;4992604;28;20438;-62
2022/03/09 10:04:50;;;;;;;0.73;0.73;;;;;;;;;;4991975;28;20765;-61
2022/03/09 10:07:16;;;;;;;0.63;0.63;;;;;;;;;;4992455;28;20761;-62
2022/03/09 10:09:42;;;;;;;0.70;0.70;;;;;;;;;;4991642;28;20414;-61
2022/03/09 10:12:09;;;;;;;0.60;0.60;;;;;;;;;;4991776;28;20408;-62
2022/03/09 10:14:42;;;;;;;0.60;0.60;;;;;;;;;;4991928;28;20784;-62
2022/03/09 10:17:10;;;;;;;1.00;1.00;;;;;;;;;;4992106;28;20395;-62
2022/03/09 10:19:37;;;;;;;0.80;0.80;;;;;;;;;;4992171;28;20801;-63
2022/03/09 10:22:22;;;;;;;0.63;0.63;;;;;;;;;;4991443;28;20811;-62
2022/03/09 10:24:48;;;;;;;0.87;0.87;;;;;;;;;;4991278;28;20448;-63
2022/03/09 10:27:31;;;;;;;0.67;0.67;;;;;;;;;;4991587;28;20483;-62
2022/03/09 10:29:57;;;;;;;0.60;0.60;;;;;;;;;;4991975;28;20405;-62
2022/03/09 10:32:41;;;;;;;0.80;0.80;;;;;;;;;;4991168;28;20399;-62
2022/03/09 10:35:07;;;;;;;0.60;0.60;;;;;;;;;;4992166;28;20410;-63
2022/03/09 10:37:38;;;;;;;0.77;0.77;;;;;;;;;;4991627;28;20416;-63
2022/03/09 10:40:14;;;;;;;0.77;0.77;;;;;;;;;;4991851;28;20831;-62
2022/03/09 10:42:40;;;;;;;1.07;1.07;;;;;;;;;;4991304;28;20433;-62
2022/03/09 10:45:07;;;;;;;0.60;0.60;;;;;;;;;;4991784;28;20405;-62
2022/03/09 10:47:39;;;;;;;1.30;1.30;;;;;;;;;;4992151;28;20445;-61
2022/03/09 10:50:14;;;;;;;0.90;0.90;;;;;;;;;;4992104;28;20389;-61
2022/03/09 10:52:57;;;;;;;1.03;1.03;;;;;;;;;;4991699;28;20925;-61
2022/03/09 10:55:31;;;;;;;1.10;1.10;;;;;;;;;;4992232;28;20395;-61
2022/03/09 10:58:06;;;;;;;1.03;1.03;;;;;;;;;;4993054;28;20414;-60
2022/03/09 11:00:36;;;;;;;1.37;1.37;;;;;;;;;;4991528;28;20404;-59
2022/03/09 11:03:06;;;;;;;2.77;2.70;;;;;;;;;;4991519;28;20449;-60
2022/03/09 11:05:32;;;;;;;1.43;1.43;;;;;;;;;;4991867;28;20406;-59
2022/03/09 11:07:58;;;;;;;1.77;1.77;;;;;;;;;;4991518;28;20765;-58
2022/03/09 11:10:26;;;;;;;2.20;2.20;;;;;;;;;;4991392;28;20873;-60
2022/03/09 11:12:52;;;;;;;1.80;1.80;;;;;;;;;;4992077;28;20483;-61
2022/03/09 11:15:20;;;;;;;1.60;1.60;;;;;;;;;;4995226;28;20386;-60
2022/03/09 11:17:48;;;;;;;2.00;2.00;;;;;;;;;;4995136;28;20916;-61
2022/03/09 11:20:15;;;;;;;2.33;2.33;;;;;;;;;;4995040;28;20792;-61
2022/03/09 11:22:41;;;;;;;1.47;1.47;;;;;;;;;;4995279;28;20441;-61
2022/03/09 11:25:08;;;;;;;1.53;1.53;;;;;;;;;;4995132;28;20395;-59
2022/03/09 11:27:34;;;;;;;2.03;2.03;;;;;;;;;;4995039;28;20917;-59
2022/03/09 11:30:20;;;;;;;2.00;2.00;;;;;;;;;;4995139;28;20971;-61
2022/03/09 11:32:46;;;;;;;2.30;2.30;;;;;;;;;;4994907;28;20437;-60
2022/03/09 11:35:30;;;;;;;1.70;1.70;;;;;;;;;;4994986;28;20391;-61
2022/03/09 11:37:56;;;;;;;1.97;1.97;;;;;;;;;;4994924;28;20419;-61
2022/03/09 11:40:22;;;;;;;1.67;1.67;;;;;;;;;;4994732;28;20424;-60
2022/03/09 11:42:48;;;;;;;2.33;2.33;;;;;;;;;;4995100;28;20441;-62
2022/03/09 11:45:14;;;;;;;1.57;1.57;;;;;;;;;;4995105;28;20908;-61
2022/03/09 11:47:56;;;;;;;1.73;1.73;;;;;;;;;;4994561;28;20489;-61
2022/03/09 11:50:22;;;;;;;3.10;3.00;;;;;;;;;;4994454;28;20497;-61
2022/03/09 11:52:55;;;;;;;1.87;1.87;;;;;;;;;;4994472;28;20861;-60
2022/03/09 11:55:22;;;;;;;1.83;1.83;;;;;;;;;;4994594;28;20380;-61
2022/03/09 11:57:47;;;;;;;1.73;1.73;;;;;;;;;;4994554;28;20490;-61
2022/03/09 12:00:16;;;;;;;3.33;3.23;;;;;;;;;;4993567;28;20457;-60
2022/03/09 12:02:47;;;;;;;2.30;2.30;;;;;;;;;;4994358;28;20474;-60
2022/03/09 12:05:26;;;;;;;1.80;1.80;;;;;;;;;;4977296;28;20822;-61
2022/03/09 12:07:52;;;;;;;1.70;1.70;;;;;;;;;;4994359;28;20994;-61
2022/03/09 12:10:21;;;;;;;1.47;1.47;;;;;;;;;;4994020;28;20497;-60
2022/03/09 12:13:06;;;;;;;1.10;1.10;;;;;;;;;;4994265;28;20990;-59
2022/03/09 12:15:36;;;;;;;1.37;1.37;;;;;;;;;;4994148;28;20405;-60
2022/03/09 12:18:22;;;;;;;1.93;1.93;;;;;;;;;;4994589;28;20808;-60
2022/03/09 12:20:49;;;;;;;1.50;1.50;;;;;;;;;;4994031;28;20748;-60
2022/03/09 12:23:16;;;;;;;1.90;1.90;;;;;;;;;;4994331;28;20523;-60
2022/03/09 12:25:49;;;;;;;1.80;1.80;;;;;;;;;;4993063;28;20405;-61
2022/03/09 12:30:53;;;;;;;2.57;2.57;;;;;;;;;;4993828;28;20857;-61
2022/03/09 12:33:22;;;;;;;1.67;1.67;;;;;;;;;;4993877;28;20437;-60
2022/03/09 12:35:48;;;;;;;2.10;2.10;;;;;;;;;;4993817;28;20421;-60
2022/03/09 12:38:14;;;;;;;2.17;2.17;;;;;;;;;;4993793;28;20456;-60
2022/03/09 12:40:40;;;;;;;2.93;2.93;;;;;;;;;;4993385;28;20418;-60
2022/03/09 12:43:06;;;;;;;1.70;1.70;;;;;;;;;;4993575;28;20444;-62
2022/03/09 12:45:51;;;;;;;1.37;1.37;;;;;;;;;;4993563;28;20396;-60
2022/03/09 12:48:21;;;;;;;3.00;2.93;;;;;;;;;;4993588;28;20461;-60
2022/03/09 12:50:47;;;;;;;1.70;1.70;;;;;;;;;;4993288;28;20414;-61
2022/03/09 12:53:18;;;;;;;2.20;2.20;;;;;;;;;;4993364;28;20452;-60
2022/03/09 12:55:44;;;;;;;1.80;1.80;;;;;;;;;;4993502;28;20418;-61
2022/03/09 12:58:10;;;;;;;2.13;2.13;;;;;;;;;;4993487;28;20893;-60
2022/03/09 13:00:36;;;;;;;2.40;2.40;;;;;;;;;;4993199;28;20414;-60
2022/03/09 13:03:02;;;;;;;2.73;2.70;;;;;;;;;;4993096;28;20468;-61
2022/03/09 13:05:29;;;;;;;2.60;2.60;;;;;;;;;;4993308;28;20631;-59
2022/03/09 13:07:58;;;;;;;2.57;2.57;;;;;;;;;;4992913;28;20461;-60
2022/03/09 13:10:25;;;;;;;4.97;4.77;;;;;;;;;;4992829;28;20409;-60
2022/03/09 13:12:59;;;;;;;2.87;2.77;;;;;;;;;;4992906;28;20525;-60
2022/03/09 13:15:36;;;;;;;5.47;5.27;;;;;;;;;;4992910;28;20412;-59
2022/03/09 13:18:02;;;;;;;3.13;3.07;;;;;;;;;;4992988;28;20471;-60
2022/03/09 13:20:28;;;;;;;3.77;3.67;;;;;;;;;;4992731;28;20421;-60
2022/03/09 13:22:54;;;;;;;2.63;2.63;;;;;;;;;;4992961;28;20441;-59
2022/03/09 13:25:20;;;;;;;2.47;2.47;;;;;;;;;;4993120;28;20410;-58
2022/03/09 13:27:46;;;;;;;3.60;3.50;;;;;;;;;;4992880;28;20469;-59
2022/03/09 13:30:16;;;;;;;4.13;4.03;;;;;;;;;;4992720;28;20414;-60
2022/03/09 13:32:42;;;;;;;2.50;2.50;;;;;;;;;;4992635;28;20432;-60
2022/03/09 13:35:09;;;;;;;3.00;2.90;;;;;;;;;;4992609;28;20945;-60
2022/03/09 13:37:39;;;;;;;3.83;3.73;;;;;;;;;;4992486;28;20414;-60
2022/03/09 13:40:09;;;;;;;3.73;3.63;;;;;;;;;;4992719;28;20436;-59
2022/03/09 13:42:37;;;;;;;3.00;2.97;;;;;;;;;;4992666;28;21020;-60
2022/03/09 13:45:07;;;;;;;3.40;3.37;;;;;;;;;;4992802;28;20824;-60
2022/03/09 13:47:45;;;;;;;4.50;4.40;;;;;;;;;;4992370;28;20985;-60
2022/03/09 13:50:18;;;;;;;5.27;5.10;;;;;;;;;;4992323;28;20451;-60
2022/03/09 13:52:45;;;;;;;3.37;3.37;;;;;;;;;;4991981;28;20429;-58
2022/03/09 13:55:18;;;;;;;3.10;3.00;;;;;;;;;;4992768;28;20809;-59
2022/03/09 13:57:44;;;;;;;3.70;3.60;;;;;;;;;;4994981;28;20472;-61
2022/03/09 14:00:12;;;;;;;3.63;3.53;;;;;;;;;;4993414;28;20473;-57
2022/03/09 14:02:38;;;;;;;2.90;2.90;;;;;;;;;;4992547;28;20986;-60
2022/03/09 14:05:06;;;;;;;3.43;3.43;;;;;;;;;;4992475;28;20424;-60
2022/03/09 14:07:39;;;;;;;3.70;3.60;;;;;;;;;;4992221;28;20449;-60
2022/03/09 14:10:14;;;;;;;3.07;2.97;;;;;;;;;;4992129;28;20896;-60
2022/03/09 14:12:41;;;;;;;2.80;2.80;;;;;;;;;;4992020;28;20474;-60
2022/03/09 14:15:07;;;;;;;2.50;2.50;;;;;;;;;;4992191;28;20174;-60
2022/03/09 14:17:33;;;;;;;1.97;1.97;;;;;;;;;;4992261;28;20439;-60
2022/03/09 14:19:59;;;;;;;2.83;2.83;;;;;;;;;;4992604;28;20411;-60
2022/03/09 14:22:25;;;;;;;4.37;4.27;;;;;;;;;;4992173;28;20830;-59
2022/03/09 14:24:52;;;;;;;5.03;4.93;;;;;;;;;;4992256;28;20422;-59
2022/03/09 14:27:18;;;;;;;4.60;4.50;;;;;;;;;;4992213;28;20460;-60
2022/03/09 14:29:44;;;;;;;4.70;4.60;;;;;;;;;;4992141;28;20253;-60
2022/03/09 14:32:10;;;;;;;3.27;3.27;;;;;;;;;;4991692;28;20465;-60
2022/03/09 14:34:36;;;;;;;4.47;4.37;;;;;;;;;;4992125;28;20442;-60
2022/03/09 14:37:02;;;;;;;4.70;4.60;;;;;;;;;;4992286;28;20412;-60
2022/03/09 14:39:28;;;;;;;4.27;4.17;;;;;;;;;;4992280;28;20406;-60
2022/03/09 14:41:54;;;;;;;7.03;6.83;;;;;;;;;;4991749;28;20432;-60
2022/03/09 14:44:20;;;;;;;7.97;7.80;;;;;;;;;;4991969;28;20440;-60
2022/03/09 14:46:48;;;;;;;7.07;6.87;;;;;;;;;;4992005;28;20416;-62
2022/03/09 14:49:14;;;;;;;7.80;7.60;;;;;;;;;;4995056;28;20440;-62